sensor_id;sensor_type;location;lat;lon;timestamp;P1;durP1;ratioP1;P2;durP2;ratioP2
19854;SDS011;10088;47.946;2.532;2023-02-15T00:01:18;27.17;;;15.83;;
19854;SDS011;10088;47.946;2.532;2023-02-15T00:03:43;26.73;;;13.57;;
19854;SDS011;10088;47.946;2.532;2023-02-15T00:06:08;24.03;;;13.47;;
19854;SDS011;10088;47.946;2.532;2023-02-15T00:08:33;20.73;;;11.80;;
19854;SDS011;10088;47.946;2.532;2023-02-15T00:11:06;16.53;;;11.33;;
19854;SDS011;10088;47.946;2.532;2023-02-15T00:13:31;20.70;;;11.00;;
19854;SDS011;10088;47.946;2.532;2023-02-15T00:16:04;20.33;;;11.50;;
19854;SDS011;10088;47.946;2.532;2023-02-15T00:18:29;16.67;;;10.10;;
19854;SDS011;10088;47.946;2.532;2023-02-15T00:20:55;17.13;;;10.67;;
19854;SDS011;10088;47.946;2.532;2023-02-15T00:23:20;20.87;;;12.07;;
19854;SDS011;10088;47.946;2.532;2023-02-15T00:25:45;19.43;;;11.73;;
19854;SDS011;10088;47.946;2.532;2023-02-15T00:28:11;20.03;;;12.60;;
19854;SDS011;10088;47.946;2.532;2023-02-15T00:30:36;18.03;;;11.03;;
19854;SDS011;10088;47.946;2.532;2023-02-15T00:33:01;20.63;;;11.97;;
19854;SDS011;10088;47.946;2.532;2023-02-15T00:35:27;20.97;;;11.23;;
19854;SDS011;10088;47.946;2.532;2023-02-15T00:37:52;19.40;;;11.20;;
19854;SDS011;10088;47.946;2.532;2023-02-15T00:40:17;17.97;;;11.70;;
19854;SDS011;10088;47.946;2.532;2023-02-15T00:42:42;20.30;;;13.00;;
19854;SDS011;10088;47.946;2.532;2023-02-15T00:45:09;18.07;;;12.43;;
19854;SDS011;10088;47.946;2.532;2023-02-15T00:47:34;26.33;;;15.70;;
19854;SDS011;10088;47.946;2.532;2023-02-15T00:49:59;18.63;;;11.60;;
19854;SDS011;10088;47.946;2.532;2023-02-15T00:52:25;18.20;;;12.37;;
19854;SDS011;10088;47.946;2.532;2023-02-15T00:54:50;21.80;;;15.00;;
19854;SDS011;10088;47.946;2.532;2023-02-15T00:57:15;32.10;;;15.50;;
19854;SDS011;10088;47.946;2.532;2023-02-15T00:59:41;19.30;;;13.17;;
19854;SDS011;10088;47.946;2.532;2023-02-15T01:02:06;21.43;;;12.60;;
19854;SDS011;10088;47.946;2.532;2023-02-15T01:04:31;15.93;;;11.20;;
19854;SDS011;10088;47.946;2.532;2023-02-15T01:06:56;17.37;;;11.43;;
19854;SDS011;10088;47.946;2.532;2023-02-15T01:09:21;20.17;;;13.47;;
19854;SDS011;10088;47.946;2.532;2023-02-15T01:11:47;19.67;;;12.70;;
19854;SDS011;10088;47.946;2.532;2023-02-15T01:14:12;17.80;;;11.67;;
19854;SDS011;10088;47.946;2.532;2023-02-15T01:16:38;23.67;;;12.27;;
19854;SDS011;10088;47.946;2.532;2023-02-15T01:19:03;17.30;;;11.07;;
19854;SDS011;10088;47.946;2.532;2023-02-15T01:21:29;15.57;;;10.17;;
19854;SDS011;10088;47.946;2.532;2023-02-15T01:23:55;20.53;;;10.60;;
19854;SDS011;10088;47.946;2.532;2023-02-15T01:26:20;18.40;;;11.07;;
19854;SDS011;10088;47.946;2.532;2023-02-15T01:28:45;18.63;;;11.27;;
19854;SDS011;10088;47.946;2.532;2023-02-15T01:31:12;19.30;;;11.43;;
19854;SDS011;10088;47.946;2.532;2023-02-15T01:33:38;16.17;;;10.33;;
19854;SDS011;10088;47.946;2.532;2023-02-15T01:36:03;23.53;;;12.73;;
19854;SDS011;10088;47.946;2.532;2023-02-15T01:38:29;19.90;;;12.10;;
19854;SDS011;10088;47.946;2.532;2023-02-15T01:40:54;20.80;;;11.93;;
19854;SDS011;10088;47.946;2.532;2023-02-15T01:43:43;17.63;;;11.17;;
19854;SDS011;10088;47.946;2.532;2023-02-15T01:46:09;19.70;;;13.00;;
19854;SDS011;10088;47.946;2.532;2023-02-15T01:48:35;24.03;;;11.63;;
19854;SDS011;10088;47.946;2.532;2023-02-15T01:51:03;23.00;;;13.70;;
19854;SDS011;10088;47.946;2.532;2023-02-15T01:53:33;21.63;;;13.10;;
19854;SDS011;10088;47.946;2.532;2023-02-15T01:56:04;22.73;;;14.60;;
19854;SDS011;10088;47.946;2.532;2023-02-15T01:58:30;18.17;;;12.20;;
19854;SDS011;10088;47.946;2.532;2023-02-15T02:00:57;20.20;;;11.73;;
19854;SDS011;10088;47.946;2.532;2023-02-15T02:06:09;22.17;;;11.37;;
19854;SDS011;10088;47.946;2.532;2023-02-15T02:08:35;19.00;;;11.90;;
19854;SDS011;10088;47.946;2.532;2023-02-15T02:11:00;20.53;;;12.57;;
19854;SDS011;10088;47.946;2.532;2023-02-15T02:13:25;24.73;;;15.40;;
19854;SDS011;10088;47.946;2.532;2023-02-15T02:23:27;23.37;;;13.20;;
19854;SDS011;10088;47.946;2.532;2023-02-15T02:26:00;18.97;;;11.10;;
19854;SDS011;10088;47.946;2.532;2023-02-15T02:36:06;21.37;;;12.23;;
19854;SDS011;10088;47.946;2.532;2023-02-15T02:38:44;22.80;;;13.33;;
19854;SDS011;10088;47.946;2.532;2023-02-15T02:43:45;23.17;;;14.23;;
19854;SDS011;10088;47.946;2.532;2023-02-15T02:46:14;25.00;;;13.97;;
19854;SDS011;10088;47.946;2.532;2023-02-15T02:48:42;23.83;;;14.63;;
19854;SDS011;10088;47.946;2.532;2023-02-15T02:51:08;31.37;;;16.93;;
19854;SDS011;10088;47.946;2.532;2023-02-15T02:53:33;26.80;;;17.27;;
19854;SDS011;10088;47.946;2.532;2023-02-15T02:56:00;22.13;;;14.83;;
19854;SDS011;10088;47.946;2.532;2023-02-15T02:58:46;28.23;;;14.13;;
19854;SDS011;10088;47.946;2.532;2023-02-15T03:01:15;23.73;;;14.43;;
19854;SDS011;10088;47.946;2.532;2023-02-15T03:03:43;29.27;;;16.87;;
19854;SDS011;10088;47.946;2.532;2023-02-15T03:06:10;29.27;;;17.80;;
19854;SDS011;10088;47.946;2.532;2023-02-15T03:08:38;22.27;;;14.20;;
19854;SDS011;10088;47.946;2.532;2023-02-15T03:11:05;27.73;;;17.17;;
19854;SDS011;10088;47.946;2.532;2023-02-15T03:13:31;30.77;;;19.60;;
19854;SDS011;10088;47.946;2.532;2023-02-15T03:15:56;32.33;;;18.57;;
19854;SDS011;10088;47.946;2.532;2023-02-15T03:18:45;35.40;;;21.87;;
19854;SDS011;10088;47.946;2.532;2023-02-15T03:21:17;31.07;;;17.87;;
19854;SDS011;10088;47.946;2.532;2023-02-15T03:23:59;32.37;;;20.27;;
19854;SDS011;10088;47.946;2.532;2023-02-15T03:26:25;36.47;;;21.07;;
19854;SDS011;10088;47.946;2.532;2023-02-15T03:28:52;30.37;;;20.80;;
19854;SDS011;10088;47.946;2.532;2023-02-15T03:31:19;26.43;;;19.33;;
19854;SDS011;10088;47.946;2.532;2023-02-15T03:33:56;29.87;;;18.63;;
19854;SDS011;10088;47.946;2.532;2023-02-15T03:36:26;34.17;;;20.27;;
19854;SDS011;10088;47.946;2.532;2023-02-15T03:41:18;31.17;;;19.00;;
19854;SDS011;10088;47.946;2.532;2023-02-15T03:43:58;29.93;;;19.43;;
19854;SDS011;10088;47.946;2.532;2023-02-15T03:48:53;37.90;;;19.60;;
19854;SDS011;10088;47.946;2.532;2023-02-15T03:51:27;33.53;;;21.47;;
19854;SDS011;10088;47.946;2.532;2023-02-15T03:54:00;31.27;;;20.53;;
19854;SDS011;10088;47.946;2.532;2023-02-15T03:56:26;35.87;;;21.37;;
19854;SDS011;10088;47.946;2.532;2023-02-15T03:58:51;40.30;;;22.97;;
19854;SDS011;10088;47.946;2.532;2023-02-15T04:02:11;38.07;;;22.37;;
19854;SDS011;10088;47.946;2.532;2023-02-15T04:04:34;38.63;;;21.00;;
19854;SDS011;10088;47.946;2.532;2023-02-15T04:07:00;37.33;;;23.93;;
19854;SDS011;10088;47.946;2.532;2023-02-15T04:09:26;42.80;;;24.63;;
19854;SDS011;10088;47.946;2.532;2023-02-15T04:12:10;35.43;;;21.63;;
19854;SDS011;10088;47.946;2.532;2023-02-15T04:14:35;39.87;;;23.17;;
19854;SDS011;10088;47.946;2.532;2023-02-15T04:17:19;36.90;;;22.47;;
19854;SDS011;10088;47.946;2.532;2023-02-15T04:19:44;37.23;;;22.67;;
19854;SDS011;10088;47.946;2.532;2023-02-15T04:22:28;45.17;;;23.03;;
19854;SDS011;10088;47.946;2.532;2023-02-15T04:25:12;35.37;;;20.67;;
19854;SDS011;10088;47.946;2.532;2023-02-15T04:27:38;43.13;;;23.37;;
19854;SDS011;10088;47.946;2.532;2023-02-15T04:30:04;41.17;;;24.60;;
19854;SDS011;10088;47.946;2.532;2023-02-15T04:32:29;43.30;;;22.97;;
19854;SDS011;10088;47.946;2.532;2023-02-15T04:34:55;42.10;;;26.33;;
19854;SDS011;10088;47.946;2.532;2023-02-15T04:37:20;42.60;;;23.40;;
19854;SDS011;10088;47.946;2.532;2023-02-15T04:39:45;38.93;;;22.53;;
19854;SDS011;10088;47.946;2.532;2023-02-15T04:42:11;36.40;;;22.53;;
19854;SDS011;10088;47.946;2.532;2023-02-15T04:44:36;35.63;;;21.83;;
19854;SDS011;10088;47.946;2.532;2023-02-15T04:47:01;31.00;;;20.93;;
19854;SDS011;10088;47.946;2.532;2023-02-15T04:49:26;33.63;;;20.33;;
19854;SDS011;10088;47.946;2.532;2023-02-15T04:51:52;29.30;;;20.00;;
19854;SDS011;10088;47.946;2.532;2023-02-15T04:54:17;28.87;;;18.30;;
19854;SDS011;10088;47.946;2.532;2023-02-15T04:56:42;27.97;;;17.73;;
19854;SDS011;10088;47.946;2.532;2023-02-15T04:59:11;31.37;;;20.00;;
19854;SDS011;10088;47.946;2.532;2023-02-15T05:01:36;29.07;;;17.27;;
19854;SDS011;10088;47.946;2.532;2023-02-15T05:04:02;28.10;;;17.60;;
19854;SDS011;10088;47.946;2.532;2023-02-15T05:06:27;41.77;;;20.43;;
19854;SDS011;10088;47.946;2.532;2023-02-15T05:08:52;34.37;;;21.23;;
19854;SDS011;10088;47.946;2.532;2023-02-15T05:11:18;35.20;;;21.07;;
19854;SDS011;10088;47.946;2.532;2023-02-15T05:13:43;33.47;;;19.67;;
19854;SDS011;10088;47.946;2.532;2023-02-15T05:16:08;31.73;;;21.43;;
19854;SDS011;10088;47.946;2.532;2023-02-15T05:18:33;34.70;;;21.70;;
19854;SDS011;10088;47.946;2.532;2023-02-15T05:20:59;36.13;;;20.13;;
19854;SDS011;10088;47.946;2.532;2023-02-15T05:23:24;37.00;;;20.57;;
19854;SDS011;10088;47.946;2.532;2023-02-15T05:25:49;35.73;;;21.13;;
19854;SDS011;10088;47.946;2.532;2023-02-15T05:28:50;33.20;;;21.53;;
19854;SDS011;10088;47.946;2.532;2023-02-15T05:31:17;42.60;;;23.13;;
19854;SDS011;10088;47.946;2.532;2023-02-15T05:33:42;39.93;;;24.33;;
19854;SDS011;10088;47.946;2.532;2023-02-15T05:36:08;41.57;;;24.70;;
19854;SDS011;10088;47.946;2.532;2023-02-15T05:38:33;51.47;;;28.30;;
19854;SDS011;10088;47.946;2.532;2023-02-15T05:40:58;36.20;;;21.83;;
19854;SDS011;10088;47.946;2.532;2023-02-15T05:43:24;40.83;;;24.10;;
19854;SDS011;10088;47.946;2.532;2023-02-15T05:45:50;35.93;;;21.80;;
19854;SDS011;10088;47.946;2.532;2023-02-15T05:48:16;37.67;;;22.93;;
19854;SDS011;10088;47.946;2.532;2023-02-15T05:50:41;37.07;;;21.70;;
19854;SDS011;10088;47.946;2.532;2023-02-15T05:53:07;38.10;;;22.27;;
19854;SDS011;10088;47.946;2.532;2023-02-15T05:55:32;41.63;;;22.07;;
19854;SDS011;10088;47.946;2.532;2023-02-15T05:57:57;31.80;;;20.67;;
19854;SDS011;10088;47.946;2.532;2023-02-15T06:00:22;36.73;;;22.23;;
19854;SDS011;10088;47.946;2.532;2023-02-15T06:02:48;34.97;;;21.50;;
19854;SDS011;10088;47.946;2.532;2023-02-15T06:05:13;48.60;;;25.67;;
19854;SDS011;10088;47.946;2.532;2023-02-15T06:07:38;43.23;;;23.00;;
19854;SDS011;10088;47.946;2.532;2023-02-15T06:10:04;40.23;;;21.60;;
19854;SDS011;10088;47.946;2.532;2023-02-15T06:12:29;35.57;;;23.03;;
19854;SDS011;10088;47.946;2.532;2023-02-15T06:14:54;35.97;;;22.30;;
19854;SDS011;10088;47.946;2.532;2023-02-15T06:17:20;40.03;;;21.87;;
19854;SDS011;10088;47.946;2.532;2023-02-15T06:19:46;38.37;;;21.83;;
19854;SDS011;10088;47.946;2.532;2023-02-15T06:22:11;32.07;;;20.57;;
19854;SDS011;10088;47.946;2.532;2023-02-15T06:24:39;31.40;;;20.77;;
19854;SDS011;10088;47.946;2.532;2023-02-15T06:27:04;34.30;;;21.27;;
19854;SDS011;10088;47.946;2.532;2023-02-15T06:29:29;39.43;;;22.20;;
19854;SDS011;10088;47.946;2.532;2023-02-15T06:31:54;38.60;;;22.63;;
19854;SDS011;10088;47.946;2.532;2023-02-15T06:34:20;39.13;;;21.47;;
19854;SDS011;10088;47.946;2.532;2023-02-15T06:36:45;36.27;;;21.03;;
19854;SDS011;10088;47.946;2.532;2023-02-15T06:39:10;30.53;;;19.50;;
19854;SDS011;10088;47.946;2.532;2023-02-15T06:41:35;33.13;;;20.40;;
19854;SDS011;10088;47.946;2.532;2023-02-15T06:44:00;34.77;;;20.27;;
19854;SDS011;10088;47.946;2.532;2023-02-15T06:46:26;35.67;;;19.23;;
19854;SDS011;10088;47.946;2.532;2023-02-15T06:48:51;35.80;;;20.47;;
19854;SDS011;10088;47.946;2.532;2023-02-15T06:51:16;34.57;;;20.73;;
19854;SDS011;10088;47.946;2.532;2023-02-15T06:53:42;35.00;;;21.67;;
19854;SDS011;10088;47.946;2.532;2023-02-15T06:56:08;38.33;;;22.70;;
19854;SDS011;10088;47.946;2.532;2023-02-15T06:58:37;31.80;;;20.67;;
19854;SDS011;10088;47.946;2.532;2023-02-15T07:01:03;38.50;;;21.93;;
19854;SDS011;10088;47.946;2.532;2023-02-15T07:03:29;38.47;;;22.07;;
19854;SDS011;10088;47.946;2.532;2023-02-15T07:05:54;32.77;;;20.13;;
19854;SDS011;10088;47.946;2.532;2023-02-15T07:08:21;32.33;;;20.90;;
19854;SDS011;10088;47.946;2.532;2023-02-15T07:10:46;34.37;;;21.50;;
19854;SDS011;10088;47.946;2.532;2023-02-15T07:13:11;30.87;;;20.77;;
19854;SDS011;10088;47.946;2.532;2023-02-15T07:15:37;37.80;;;22.43;;
19854;SDS011;10088;47.946;2.532;2023-02-15T07:18:02;30.97;;;20.67;;
19854;SDS011;10088;47.946;2.532;2023-02-15T07:20:27;34.37;;;21.97;;
19854;SDS011;10088;47.946;2.532;2023-02-15T07:22:54;31.90;;;20.00;;
19854;SDS011;10088;47.946;2.532;2023-02-15T07:25:19;34.87;;;21.83;;
19854;SDS011;10088;47.946;2.532;2023-02-15T07:27:45;37.27;;;22.10;;
19854;SDS011;10088;47.946;2.532;2023-02-15T07:30:11;36.57;;;21.67;;
19854;SDS011;10088;47.946;2.532;2023-02-15T07:32:37;36.23;;;22.90;;
19854;SDS011;10088;47.946;2.532;2023-02-15T07:35:22;39.77;;;24.17;;
19854;SDS011;10088;47.946;2.532;2023-02-15T07:37:47;34.83;;;21.50;;
19854;SDS011;10088;47.946;2.532;2023-02-15T07:40:13;33.60;;;20.97;;
19854;SDS011;10088;47.946;2.532;2023-02-15T07:42:38;32.37;;;21.10;;
19854;SDS011;10088;47.946;2.532;2023-02-15T07:45:03;33.57;;;21.47;;
19854;SDS011;10088;47.946;2.532;2023-02-15T07:47:29;37.60;;;22.63;;
19854;SDS011;10088;47.946;2.532;2023-02-15T07:49:54;35.07;;;21.60;;
19854;SDS011;10088;47.946;2.532;2023-02-15T07:52:19;31.70;;;21.23;;
19854;SDS011;10088;47.946;2.532;2023-02-15T07:54:44;32.10;;;20.57;;
19854;SDS011;10088;47.946;2.532;2023-02-15T07:57:10;34.10;;;22.53;;
19854;SDS011;10088;47.946;2.532;2023-02-15T07:59:35;36.80;;;22.20;;
19854;SDS011;10088;47.946;2.532;2023-02-15T08:02:00;35.90;;;24.37;;
19854;SDS011;10088;47.946;2.532;2023-02-15T08:04:25;44.60;;;31.37;;
19854;SDS011;10088;47.946;2.532;2023-02-15T08:06:54;38.23;;;26.37;;
19854;SDS011;10088;47.946;2.532;2023-02-15T08:09:20;33.37;;;22.60;;
19854;SDS011;10088;47.946;2.532;2023-02-15T08:11:46;35.73;;;23.67;;
19854;SDS011;10088;47.946;2.532;2023-02-15T08:16:55;32.50;;;23.20;;
19854;SDS011;10088;47.946;2.532;2023-02-15T08:19:28;43.40;;;29.20;;
19854;SDS011;10088;47.946;2.532;2023-02-15T08:22:04;43.27;;;29.87;;
19854;SDS011;10088;47.946;2.532;2023-02-15T08:24:31;39.30;;;27.70;;
19854;SDS011;10088;47.946;2.532;2023-02-15T08:26:57;40.03;;;28.00;;
19854;SDS011;10088;47.946;2.532;2023-02-15T08:29:24;40.97;;;28.07;;
19854;SDS011;10088;47.946;2.532;2023-02-15T08:31:50;39.60;;;28.33;;
19854;SDS011;10088;47.946;2.532;2023-02-15T08:34:17;36.83;;;24.50;;
19854;SDS011;10088;47.946;2.532;2023-02-15T08:36:43;37.63;;;27.57;;
19854;SDS011;10088;47.946;2.532;2023-02-15T08:39:10;40.40;;;27.27;;
19854;SDS011;10088;47.946;2.532;2023-02-15T08:41:36;46.13;;;30.00;;
19854;SDS011;10088;47.946;2.532;2023-02-15T08:44:02;40.47;;;27.97;;
19854;SDS011;10088;47.946;2.532;2023-02-15T08:46:31;41.17;;;27.53;;
19854;SDS011;10088;47.946;2.532;2023-02-15T08:48:57;42.50;;;27.90;;
19854;SDS011;10088;47.946;2.532;2023-02-15T08:51:26;40.93;;;28.33;;
19854;SDS011;10088;47.946;2.532;2023-02-15T08:53:54;40.43;;;26.83;;
19854;SDS011;10088;47.946;2.532;2023-02-15T08:56:21;31.77;;;23.23;;
19854;SDS011;10088;47.946;2.532;2023-02-15T08:58:46;34.27;;;24.40;;
19854;SDS011;10088;47.946;2.532;2023-02-15T09:01:16;26.87;;;19.70;;
19854;SDS011;10088;47.946;2.532;2023-02-15T09:03:43;27.97;;;18.00;;
19854;SDS011;10088;47.946;2.532;2023-02-15T09:06:09;25.03;;;17.63;;
19854;SDS011;10088;47.946;2.532;2023-02-15T09:08:34;24.23;;;16.23;;
19854;SDS011;10088;47.946;2.532;2023-02-15T09:13:30;24.87;;;16.90;;
19854;SDS011;10088;47.946;2.532;2023-02-15T09:16:00;24.13;;;16.20;;
19854;SDS011;10088;47.946;2.532;2023-02-15T09:18:25;18.57;;;13.20;;
19854;SDS011;10088;47.946;2.532;2023-02-15T09:20:50;18.87;;;12.57;;
19854;SDS011;10088;47.946;2.532;2023-02-15T09:23:15;17.33;;;11.47;;
19854;SDS011;10088;47.946;2.532;2023-02-15T09:25:41;19.20;;;12.50;;
19854;SDS011;10088;47.946;2.532;2023-02-15T09:28:07;16.63;;;11.70;;
19854;SDS011;10088;47.946;2.532;2023-02-15T09:30:33;16.90;;;11.07;;
19854;SDS011;10088;47.946;2.532;2023-02-15T09:32:58;16.93;;;11.97;;
19854;SDS011;10088;47.946;2.532;2023-02-15T09:35:23;15.17;;;11.60;;
19854;SDS011;10088;47.946;2.532;2023-02-15T09:37:49;15.87;;;11.60;;
19854;SDS011;10088;47.946;2.532;2023-02-15T09:40:14;14.20;;;11.13;;
19854;SDS011;10088;47.946;2.532;2023-02-15T09:42:50;15.90;;;11.77;;
19854;SDS011;10088;47.946;2.532;2023-02-15T10:18:59;14.47;;;11.50;;
19854;SDS011;10088;47.946;2.532;2023-02-15T10:26:44;13.47;;;10.97;;
19854;SDS011;10088;47.946;2.532;2023-02-15T10:43:26;14.63;;;10.67;;
19854;SDS011;10088;47.946;2.532;2023-02-15T10:47:48;11.23;;;9.40;;
19854;SDS011;10088;47.946;2.532;2023-02-15T10:52:59;11.00;;;8.83;;
19854;SDS011;10088;47.946;2.532;2023-02-15T11:00:23;11.40;;;8.13;;
19854;SDS011;10088;47.946;2.532;2023-02-15T11:02:58;8.70;;;6.87;;
19854;SDS011;10088;47.946;2.532;2023-02-15T11:07:57;12.00;;;6.93;;
19854;SDS011;10088;47.946;2.532;2023-02-15T11:12:52;9.57;;;7.27;;
19854;SDS011;10088;47.946;2.532;2023-02-15T11:17:50;7.70;;;6.17;;
19854;SDS011;10088;47.946;2.532;2023-02-15T11:22:48;9.77;;;6.97;;
19854;SDS011;10088;47.946;2.532;2023-02-15T11:25:17;8.33;;;7.07;;
19854;SDS011;10088;47.946;2.532;2023-02-15T11:27:43;7.80;;;6.63;;
19854;SDS011;10088;47.946;2.532;2023-02-15T11:32:35;7.57;;;6.23;;
19854;SDS011;10088;47.946;2.532;2023-02-15T11:40:02;9.10;;;6.67;;
19854;SDS011;10088;47.946;2.532;2023-02-15T11:42:29;8.87;;;6.23;;
19854;SDS011;10088;47.946;2.532;2023-02-15T11:45:10;6.60;;;6.00;;
19854;SDS011;10088;47.946;2.532;2023-02-15T11:47:40;6.60;;;5.20;;
19854;SDS011;10088;47.946;2.532;2023-02-15T11:50:05;7.87;;;5.70;;
19854;SDS011;10088;47.946;2.532;2023-02-15T11:52:31;6.63;;;5.20;;
19854;SDS011;10088;47.946;2.532;2023-02-15T11:54:56;13.80;;;5.50;;
19854;SDS011;10088;47.946;2.532;2023-02-15T11:57:37;5.43;;;4.47;;
19854;SDS011;10088;47.946;2.532;2023-02-15T12:00:10;6.47;;;4.60;;
19854;SDS011;10088;47.946;2.532;2023-02-15T12:02:38;6.23;;;4.93;;
19854;SDS011;10088;47.946;2.532;2023-02-15T12:05:07;4.77;;;4.20;;
19854;SDS011;10088;47.946;2.532;2023-02-15T12:07:35;5.93;;;4.50;;
19854;SDS011;10088;47.946;2.532;2023-02-15T12:10:10;5.60;;;4.33;;
19854;SDS011;10088;47.946;2.532;2023-02-15T12:12:39;7.20;;;4.73;;
19854;SDS011;10088;47.946;2.532;2023-02-15T12:15:09;6.87;;;4.30;;
19854;SDS011;10088;47.946;2.532;2023-02-15T12:20:00;9.47;;;5.60;;
19854;SDS011;10088;47.946;2.532;2023-02-15T12:22:30;5.77;;;4.60;;
19854;SDS011;10088;47.946;2.532;2023-02-15T12:24:58;7.13;;;5.10;;
19854;SDS011;10088;47.946;2.532;2023-02-15T12:27:25;6.57;;;5.33;;
19854;SDS011;10088;47.946;2.532;2023-02-15T12:29:52;8.80;;;6.47;;
19854;SDS011;10088;47.946;2.532;2023-02-15T12:32:28;5.30;;;4.80;;
19854;SDS011;10088;47.946;2.532;2023-02-15T12:34:56;8.63;;;7.73;;
19854;SDS011;10088;47.946;2.532;2023-02-15T12:37:25;15.77;;;11.23;;
19854;SDS011;10088;47.946;2.532;2023-02-15T12:42:17;10.77;;;8.23;;
19854;SDS011;10088;47.946;2.532;2023-02-15T12:44:54;10.10;;;5.00;;
19854;SDS011;10088;47.946;2.532;2023-02-15T12:47:20;7.67;;;5.27;;
19854;SDS011;10088;47.946;2.532;2023-02-15T12:50:04;9.53;;;5.47;;
19854;SDS011;10088;47.946;2.532;2023-02-15T12:52:30;6.53;;;5.50;;
19854;SDS011;10088;47.946;2.532;2023-02-15T12:54:55;9.73;;;6.63;;
19854;SDS011;10088;47.946;2.532;2023-02-15T12:57:34;7.00;;;6.10;;
19854;SDS011;10088;47.946;2.532;2023-02-15T13:02:27;7.70;;;5.57;;
19854;SDS011;10088;47.946;2.532;2023-02-15T13:04:53;6.23;;;5.37;;
19854;SDS011;10088;47.946;2.532;2023-02-15T13:07:18;7.17;;;5.57;;
19854;SDS011;10088;47.946;2.532;2023-02-15T13:09:45;8.27;;;6.07;;
19854;SDS011;10088;47.946;2.532;2023-02-15T13:14:36;6.90;;;6.03;;
19854;SDS011;10088;47.946;2.532;2023-02-15T13:17:02;7.27;;;5.00;;
19854;SDS011;10088;47.946;2.532;2023-02-15T13:21:53;6.97;;;6.00;;
19854;SDS011;10088;47.946;2.532;2023-02-15T13:24:22;6.87;;;5.33;;
19854;SDS011;10088;47.946;2.532;2023-02-15T13:26:49;6.23;;;5.60;;
19854;SDS011;10088;47.946;2.532;2023-02-15T13:29:33;7.20;;;5.40;;
19854;SDS011;10088;47.946;2.532;2023-02-15T13:32:17;7.83;;;5.10;;
19854;SDS011;10088;47.946;2.532;2023-02-15T13:34:45;7.70;;;6.10;;
19854;SDS011;10088;47.946;2.532;2023-02-15T13:39:54;5.37;;;4.83;;
19854;SDS011;10088;47.946;2.532;2023-02-15T13:42:26;8.63;;;5.93;;
19854;SDS011;10088;47.946;2.532;2023-02-15T13:45:16;7.90;;;5.70;;
19854;SDS011;10088;47.946;2.532;2023-02-15T13:51:06;8.50;;;5.77;;
19854;SDS011;10088;47.946;2.532;2023-02-15T13:56:06;7.10;;;5.30;;
19854;SDS011;10088;47.946;2.532;2023-02-15T14:01:18;6.73;;;5.00;;
19854;SDS011;10088;47.946;2.532;2023-02-15T14:09:27;9.67;;;6.13;;
19854;SDS011;10088;47.946;2.532;2023-02-15T14:19:54;6.20;;;5.17;;
19854;SDS011;10088;47.946;2.532;2023-02-15T14:22:26;9.77;;;8.50;;
19854;SDS011;10088;47.946;2.532;2023-02-15T14:25:03;34.20;;;25.10;;
19854;SDS011;10088;47.946;2.532;2023-02-15T14:30:12;8.47;;;7.67;;
19854;SDS011;10088;47.946;2.532;2023-02-15T14:32:41;6.17;;;4.23;;
19854;SDS011;10088;47.946;2.532;2023-02-15T14:35:17;6.97;;;4.67;;
19854;SDS011;10088;47.946;2.532;2023-02-15T14:37:49;5.37;;;4.57;;
19854;SDS011;10088;47.946;2.532;2023-02-15T14:43:14;7.60;;;3.93;;
19854;SDS011;10088;47.946;2.532;2023-02-15T14:50:38;6.10;;;4.60;;
19854;SDS011;10088;47.946;2.532;2023-02-15T14:53:14;5.57;;;4.57;;
19854;SDS011;10088;47.946;2.532;2023-02-15T14:55:39;9.83;;;7.10;;
19854;SDS011;10088;47.946;2.532;2023-02-15T14:58:09;7.40;;;4.20;;
19854;SDS011;10088;47.946;2.532;2023-02-15T15:00:36;6.87;;;5.10;;
19854;SDS011;10088;47.946;2.532;2023-02-15T15:03:03;7.73;;;4.57;;
19854;SDS011;10088;47.946;2.532;2023-02-15T15:05:34;5.37;;;4.20;;
19854;SDS011;10088;47.946;2.532;2023-02-15T15:08:01;5.37;;;4.43;;
19854;SDS011;10088;47.946;2.532;2023-02-15T15:10:43;5.67;;;4.80;;
19854;SDS011;10088;47.946;2.532;2023-02-15T15:15:53;6.27;;;4.03;;
19854;SDS011;10088;47.946;2.532;2023-02-15T15:21:02;6.00;;;4.30;;
19854;SDS011;10088;47.946;2.532;2023-02-15T15:23:41;7.17;;;5.43;;
19854;SDS011;10088;47.946;2.532;2023-02-15T15:26:26;13.40;;;9.23;;
19854;SDS011;10088;47.946;2.532;2023-02-15T15:28:52;10.07;;;6.60;;
19854;SDS011;10088;47.946;2.532;2023-02-15T15:41:34;12.40;;;9.43;;
19854;SDS011;10088;47.946;2.532;2023-02-15T15:49:20;6.53;;;5.00;;
19854;SDS011;10088;47.946;2.532;2023-02-15T15:51:47;7.87;;;5.90;;
19854;SDS011;10088;47.946;2.532;2023-02-15T15:54:16;9.67;;;6.90;;
19854;SDS011;10088;47.946;2.532;2023-02-15T15:56:43;19.33;;;16.43;;
19854;SDS011;10088;47.946;2.532;2023-02-15T15:59:12;23.10;;;20.63;;
19854;SDS011;10088;47.946;2.532;2023-02-15T16:01:41;9.93;;;7.77;;
19854;SDS011;10088;47.946;2.532;2023-02-15T16:04:11;6.57;;;4.90;;
19854;SDS011;10088;47.946;2.532;2023-02-15T16:06:37;6.57;;;4.53;;
19854;SDS011;10088;47.946;2.532;2023-02-15T16:09:13;5.40;;;4.40;;
19854;SDS011;10088;47.946;2.532;2023-02-15T16:11:41;5.77;;;5.10;;
19854;SDS011;10088;47.946;2.532;2023-02-15T16:14:49;7.47;;;4.10;;
19854;SDS011;10088;47.946;2.532;2023-02-15T16:16:56;7.40;;;4.97;;
19854;SDS011;10088;47.946;2.532;2023-02-15T16:19:35;9.80;;;5.30;;
19854;SDS011;10088;47.946;2.532;2023-02-15T16:22:01;10.00;;;4.80;;
19854;SDS011;10088;47.946;2.532;2023-02-15T16:24:34;5.30;;;4.70;;
19854;SDS011;10088;47.946;2.532;2023-02-15T16:29:36;11.83;;;7.73;;
19854;SDS011;10088;47.946;2.532;2023-02-15T16:32:03;7.77;;;4.73;;
19854;SDS011;10088;47.946;2.532;2023-02-15T16:34:28;6.67;;;4.90;;
19854;SDS011;10088;47.946;2.532;2023-02-15T16:37:16;9.33;;;4.50;;
19854;SDS011;10088;47.946;2.532;2023-02-15T16:39:42;6.30;;;5.00;;
19854;SDS011;10088;47.946;2.532;2023-02-15T16:42:09;6.23;;;4.77;;
19854;SDS011;10088;47.946;2.532;2023-02-15T16:44:35;6.67;;;4.70;;
19854;SDS011;10088;47.946;2.532;2023-02-15T16:47:00;8.40;;;5.67;;
19854;SDS011;10088;47.946;2.532;2023-02-15T16:49:27;10.27;;;6.00;;
19854;SDS011;10088;47.946;2.532;2023-02-15T16:51:54;8.47;;;7.07;;
19854;SDS011;10088;47.946;2.532;2023-02-15T16:54:20;8.77;;;6.07;;
19854;SDS011;10088;47.946;2.532;2023-02-15T16:56:46;14.07;;;10.27;;
19854;SDS011;10088;47.946;2.532;2023-02-15T16:59:19;15.63;;;10.50;;
19854;SDS011;10088;47.946;2.532;2023-02-15T17:01:47;14.17;;;9.30;;
19854;SDS011;10088;47.946;2.532;2023-02-15T17:06:38;8.23;;;5.67;;
19854;SDS011;10088;47.946;2.532;2023-02-15T17:09:04;7.80;;;5.30;;
19854;SDS011;10088;47.946;2.532;2023-02-15T17:11:41;8.43;;;6.30;;
19854;SDS011;10088;47.946;2.532;2023-02-15T17:16:41;7.63;;;5.43;;
19854;SDS011;10088;47.946;2.532;2023-02-15T17:19:17;10.13;;;5.00;;
19854;SDS011;10088;47.946;2.532;2023-02-15T17:21:51;9.03;;;5.53;;
19854;SDS011;10088;47.946;2.532;2023-02-15T17:24:37;8.43;;;5.47;;
19854;SDS011;10088;47.946;2.532;2023-02-15T17:27:25;6.73;;;4.63;;
19854;SDS011;10088;47.946;2.532;2023-02-15T17:29:57;6.97;;;5.70;;
19854;SDS011;10088;47.946;2.532;2023-02-15T17:32:30;12.77;;;6.03;;
19854;SDS011;10088;47.946;2.532;2023-02-15T17:39:53;7.60;;;4.83;;
19854;SDS011;10088;47.946;2.532;2023-02-15T17:42:18;7.67;;;4.87;;
19854;SDS011;10088;47.946;2.532;2023-02-15T17:44:44;5.90;;;4.50;;
19854;SDS011;10088;47.946;2.532;2023-02-15T17:47:11;10.67;;;5.30;;
19854;SDS011;10088;47.946;2.532;2023-02-15T17:49:39;5.90;;;4.60;;